createdAt,value
2023-09-05T00:00:56.435Z,3.70
2023-09-05T00:06:05.897Z,3.80
2023-09-05T00:11:09.213Z,3.28
2023-09-05T00:16:12.202Z,3.97
2023-09-05T00:21:19.764Z,3.95
2023-09-05T00:26:22.829Z,3.42
2023-09-05T00:31:26.483Z,3.70
2023-09-05T00:36:31.836Z,4.07
2023-09-05T00:41:36.470Z,4.05
2023-09-05T00:46:40.238Z,4.25
2023-09-05T00:51:47.039Z,3.67
2023-09-05T00:56:50.340Z,3.83
2023-09-05T01:01:53.259Z,4.10
2023-09-05T01:07:03.956Z,3.75
2023-09-05T01:12:07.295Z,3.63
2023-09-05T01:17:10.220Z,3.90
2023-09-05T01:22:19.652Z,3.55
2023-09-05T01:27:26.106Z,3.50
2023-09-05T01:32:29.032Z,4.33
2023-09-05T01:37:31.867Z,3.60
2023-09-05T01:42:36.104Z,3.70
2023-09-05T01:47:38.989Z,2.97
2023-09-05T01:52:41.898Z,3.50
2023-09-05T01:57:46.093Z,3.33
2023-09-05T02:02:49.070Z,3.30
2023-09-05T02:07:52.196Z,3.15
2023-09-05T02:12:56.408Z,3.50
2023-09-05T02:18:01.913Z,4.07
2023-09-05T02:23:05.223Z,3.60
2023-09-05T02:28:09.615Z,4.55
2023-09-05T02:33:12.593Z,4.90
2023-09-05T02:38:15.556Z,4.47
2023-09-05T02:43:19.861Z,3.90
2023-09-05T02:48:22.995Z,3.90
2023-09-05T02:53:25.942Z,4.07
2023-09-05T02:58:33.227Z,3.10
2023-09-05T03:03:36.302Z,4.70
2023-09-05T03:08:39.955Z,3.58
2023-09-05T03:13:45.477Z,4.10
2023-09-05T03:18:48.729Z,3.43
2023-09-05T03:23:51.660Z,4.32
2023-09-05T03:28:57.064Z,3.58
2023-09-05T03:34:00.056Z,3.72
2023-09-05T03:39:03.033Z,3.50
2023-09-05T03:44:07.737Z,2.97
2023-09-05T03:49:10.727Z,3.60
2023-09-05T03:54:14.212Z,3.00
2023-09-05T03:59:18.795Z,3.63
2023-09-05T04:04:21.734Z,4.13
2023-09-05T04:09:24.701Z,3.80
2023-09-05T04:14:30.914Z,3.75
2023-09-05T04:19:33.817Z,3.58
2023-09-05T04:24:36.662Z,5.03
2023-09-05T04:29:40.977Z,4.50
2023-09-05T04:34:44.226Z,5.07
2023-09-05T04:39:47.081Z,5.28
2023-09-05T04:44:54.286Z,4.83
2023-09-05T04:49:59.548Z,4.73
2023-09-05T04:55:02.663Z,4.32
2023-09-05T05:00:08.832Z,4.20
2023-09-05T05:05:13.150Z,4.15
2023-09-05T05:10:16.358Z,4.45
2023-09-05T05:15:20.798Z,4.53
2023-09-05T05:20:23.761Z,3.63
2023-09-05T05:25:31.154Z,4.70
2023-09-05T05:30:37.991Z,4.77
2023-09-05T05:35:41.193Z,4.13
2023-09-05T05:40:44.210Z,4.53
2023-09-05T05:45:51.017Z,3.92
2023-09-05T05:50:58.030Z,3.83
2023-09-05T05:56:01.183Z,3.70
2023-09-05T06:01:07.976Z,3.65
2023-09-05T06:06:10.908Z,3.58
2023-09-05T06:11:14.244Z,3.17
2023-09-05T06:16:18.639Z,3.58
2023-09-05T06:21:21.629Z,4.17
2023-09-05T06:26:24.731Z,3.60
2023-09-05T06:31:29.247Z,3.47
2023-09-05T06:36:34.038Z,2.92
2023-09-05T06:41:39.337Z,3.00
2023-09-05T06:46:46.298Z,3.80
2023-09-05T06:51:51.295Z,3.30
2023-09-05T06:56:54.480Z,3.38
2023-09-05T07:01:58.918Z,2.72
2023-09-05T07:07:04.504Z,2.60
2023-09-05T07:12:09.203Z,2.70
2023-09-05T07:17:13.621Z,2.75
2023-09-05T07:22:16.636Z,2.60
2023-09-05T07:27:21.499Z,3.03
2023-09-05T07:32:25.919Z,3.20
2023-09-05T07:37:28.934Z,3.00
2023-09-05T07:42:31.892Z,2.63
2023-09-05T07:47:36.322Z,2.70
2023-09-05T07:52:39.341Z,2.60
2023-09-05T07:57:43.270Z,2.70
2023-09-05T08:02:49.745Z,2.65
2023-09-05T08:07:52.872Z,3.00
2023-09-05T08:12:56.213Z,2.78
2023-09-05T08:18:00.536Z,2.63
2023-09-05T08:23:03.371Z,2.70
2023-09-05T08:28:07.430Z,3.00
2023-09-05T08:33:11.910Z,2.50
2023-09-05T08:38:15.107Z,2.80
2023-09-05T08:43:18.576Z,3.00
2023-09-05T08:48:23.409Z,2.65
2023-09-05T08:53:33.609Z,2.90
2023-09-05T08:58:37.050Z,2.73
2023-09-05T09:03:41.489Z,2.73
2023-09-05T09:08:45.576Z,3.83
2023-09-05T09:14:14.622Z,2.70
2023-09-05T09:19:18.925Z,2.88
2023-09-05T09:24:21.856Z,2.67
2023-09-05T09:29:24.938Z,3.30
2023-09-05T09:34:29.376Z,2.55
2023-09-05T09:39:33.626Z,3.05
2023-09-05T09:44:37.544Z,3.03
2023-09-05T09:49:46.554Z,3.53
2023-09-05T09:54:52.221Z,3.10
2023-09-05T10:00:00.933Z,3.40
2023-09-05T10:05:08.259Z,3.35
2023-09-05T10:10:16.719Z,2.53
2023-09-05T10:15:21.317Z,3.35
2023-09-05T10:20:28.647Z,2.60
2023-09-05T10:25:32.193Z,4.28
2023-09-05T10:30:40.973Z,3.08
2023-09-05T10:35:52.816Z,3.20
2023-09-05T10:40:55.968Z,3.60
2023-09-05T10:46:01.140Z,3.60
2023-09-05T10:51:11.640Z,3.88
2023-09-05T10:56:40.365Z,3.50
2023-09-05T11:01:49.857Z,3.72
2023-09-05T11:07:01.730Z,3.70
2023-09-05T11:12:07.592Z,3.17
2023-09-05T11:17:17.424Z,3.50
2023-09-05T11:22:23.818Z,3.45
2023-09-05T11:27:30.169Z,3.45
2023-09-05T11:32:34.816Z,3.33
2023-09-05T11:37:39.426Z,3.15
2023-09-05T11:42:44.770Z,2.63
2023-09-05T11:47:48.833Z,2.60
2023-09-05T11:52:54.236Z,3.13
2023-09-05T11:57:59.491Z,2.90
2023-09-05T12:03:02.573Z,2.08
2023-09-05T12:08:18.748Z,2.67
2023-09-05T12:13:39.255Z,2.70
2023-09-05T12:18:45.336Z,2.72
2023-09-05T12:23:51.553Z,2.70
2023-09-05T12:28:59.326Z,2.57
2023-09-05T12:34:02.263Z,2.63
2023-09-05T12:39:06.950Z,2.88
2023-09-05T12:44:09.999Z,2.58
2023-09-05T12:49:13.880Z,2.47
2023-09-05T12:54:18.289Z,2.60
2023-09-05T12:59:25.377Z,2.67
2023-09-05T13:04:31.125Z,2.45
2023-09-05T13:09:35.529Z,2.35
2023-09-05T13:14:38.500Z,2.43
2023-09-05T13:19:42.077Z,2.88
2023-09-05T13:24:47.480Z,2.42
2023-09-05T13:29:51.434Z,2.70
2023-09-05T13:34:55.137Z,2.70
2023-09-05T13:39:59.526Z,3.00
2023-09-05T13:45:03.087Z,2.65
2023-09-05T13:50:07.927Z,3.20
2023-09-05T13:55:12.699Z,2.53
2023-09-05T14:00:16.540Z,3.17
2023-09-05T14:05:21.429Z,2.10
2023-09-05T14:10:25.843Z,2.25
2023-09-05T14:15:28.937Z,2.80
2023-09-05T14:20:31.952Z,2.40
2023-09-05T14:25:36.553Z,2.30
2023-09-05T14:30:39.517Z,2.25
2023-09-05T14:35:42.525Z,2.23
2023-09-05T14:40:46.928Z,2.70
2023-09-05T14:45:50.065Z,2.60
2023-09-05T14:50:53.143Z,2.45
2023-09-05T14:55:57.528Z,2.17
2023-09-05T15:01:00.535Z,2.33
2023-09-05T15:06:03.605Z,1.65
2023-09-05T15:11:08.782Z,2.50
2023-09-05T15:16:11.984Z,2.25
2023-09-05T15:21:15.119Z,2.75
2023-09-05T15:26:19.945Z,2.38
2023-09-05T15:31:23.049Z,2.13
2023-09-05T15:36:26.156Z,2.25
2023-09-05T15:41:30.696Z,2.50
2023-09-05T15:46:34.057Z,2.60
2023-09-05T15:51:37.164Z,2.03
2023-09-05T15:56:41.626Z,2.70
2023-09-05T16:01:44.686Z,1.90
2023-09-05T16:06:47.702Z,2.17
2023-09-05T16:11:52.074Z,2.13
2023-09-05T16:16:57.843Z,1.77
2023-09-05T16:22:00.900Z,1.83
2023-09-05T16:27:05.770Z,2.10
2023-09-05T16:32:08.730Z,2.63
2023-09-05T16:37:16.076Z,2.23
2023-09-05T16:42:20.872Z,1.80
2023-09-05T16:47:23.906Z,2.20
2023-09-05T16:52:26.909Z,2.08
2023-09-05T16:57:31.257Z,1.90
2023-09-05T17:02:34.317Z,1.98
2023-09-05T17:07:37.379Z,1.80
2023-09-05T17:12:41.894Z,1.80
2023-09-05T17:17:44.936Z,2.08
2023-09-05T17:22:48.127Z,2.10
2023-09-05T17:27:52.628Z,2.20
2023-09-05T17:32:55.707Z,2.13
2023-09-05T17:37:58.806Z,2.30
2023-09-05T17:43:03.462Z,1.70
2023-09-05T17:48:07.314Z,1.80
2023-09-05T17:53:10.957Z,2.10
2023-09-05T17:58:15.382Z,1.90
2023-09-05T18:03:24.113Z,1.87
2023-09-05T18:08:27.586Z,2.00
2023-09-05T18:13:32.018Z,2.10
2023-09-05T18:18:35.522Z,2.00
2023-09-05T18:23:40.012Z,1.80
2023-09-05T18:28:44.454Z,2.08
2023-09-05T18:33:47.579Z,2.20
2023-09-05T18:38:50.584Z,2.13
2023-09-05T18:43:55.614Z,2.07
2023-09-05T18:48:58.657Z,1.92
2023-09-05T18:54:01.690Z,2.30
2023-09-05T18:59:06.194Z,2.42
2023-09-05T19:04:09.423Z,1.83
2023-09-05T19:09:14.571Z,1.90
2023-09-05T19:14:18.929Z,2.08
2023-09-05T19:19:21.929Z,2.30
2023-09-05T19:24:24.895Z,2.10
2023-09-05T19:29:30.013Z,1.90
2023-09-05T19:34:33.350Z,1.90
2023-09-05T19:39:36.330Z,2.50
2023-09-05T19:44:41.094Z,2.00
2023-09-05T19:49:44.029Z,2.63
2023-09-05T19:54:47.217Z,2.40
2023-09-05T19:59:53.368Z,2.10
2023-09-05T20:04:58.451Z,2.17
2023-09-05T20:10:01.406Z,2.40
2023-09-05T20:15:06.639Z,1.95
2023-09-05T20:20:13.615Z,2.17
2023-09-05T20:25:16.546Z,2.20
2023-09-05T20:30:21.051Z,2.22
2023-09-05T20:35:24.152Z,1.90
2023-09-05T20:40:27.126Z,2.30
2023-09-05T20:45:32.394Z,2.60
2023-09-05T20:50:35.820Z,2.60
2023-09-05T20:55:38.753Z,2.50
2023-09-05T21:00:43.205Z,3.13
2023-09-05T21:05:46.223Z,2.63
2023-09-05T21:10:49.155Z,3.10
2023-09-05T21:15:58.003Z,3.20
2023-09-05T21:21:00.969Z,2.85
2023-09-05T21:26:05.045Z,3.57
2023-09-05T21:31:09.499Z,3.35
2023-09-05T21:36:12.436Z,3.40
2023-09-05T21:41:15.371Z,3.63
2023-09-05T21:46:19.660Z,3.47
2023-09-05T21:51:22.620Z,3.40
2023-09-05T21:56:25.598Z,3.08
2023-09-05T22:01:31.894Z,3.85
2023-09-05T22:06:36.266Z,3.47
2023-09-05T22:11:39.207Z,2.70
2023-09-05T22:16:45.248Z,2.40
2023-09-05T22:21:48.288Z,2.88
2023-09-05T22:26:51.228Z,2.93
2023-09-05T22:31:55.883Z,2.63
2023-09-05T22:36:59.026Z,3.60
2023-09-05T22:42:02.020Z,3.37
2023-09-05T22:47:06.602Z,3.60
2023-09-05T22:52:10.249Z,3.28
2023-09-05T22:57:13.177Z,3.27
2023-09-05T23:02:17.469Z,3.00
2023-09-05T23:07:20.511Z,3.10
2023-09-05T23:12:23.982Z,4.00
2023-09-05T23:17:31.668Z,3.92
2023-09-05T23:22:34.839Z,3.60
2023-09-05T23:27:37.792Z,4.00
2023-09-05T23:32:43.025Z,3.80
2023-09-05T23:37:46.239Z,2.60
2023-09-05T23:42:49.254Z,3.20
2023-09-05T23:47:55.134Z,2.97
2023-09-05T23:52:59.456Z,3.10
2023-09-05T23:58:02.583Z,2.90
